createdAt,value
2023-04-20T00:01:32.660Z,94.50
2023-04-20T00:04:02.229Z,94.70
2023-04-20T00:06:32.344Z,94.80
2023-04-20T00:09:00.631Z,94.70
2023-04-20T00:11:28.851Z,94.90
2023-04-20T00:13:56.876Z,95.00
2023-04-20T00:16:25.105Z,95.30
2023-04-20T00:18:53.277Z,95.40
2023-04-20T00:21:24.253Z,95.40
2023-04-20T00:23:52.778Z,95.30
2023-04-20T00:26:21.260Z,95.30
2023-04-20T00:28:49.382Z,95.30
2023-04-20T00:31:17.662Z,95.20
2023-04-20T00:33:45.810Z,95.40
2023-04-20T00:36:13.839Z,96.00
2023-04-20T00:38:43.460Z,95.90
2023-04-20T00:41:11.584Z,96.00
2023-04-20T00:43:39.758Z,96.00
2023-04-20T00:46:07.905Z,96.10
2023-04-20T00:48:36.008Z,96.10
2023-04-20T00:51:04.057Z,96.20
2023-04-20T00:53:32.167Z,96.40
2023-04-20T00:56:01.579Z,96.50
2023-04-20T00:58:29.893Z,96.70
2023-04-20T01:00:58.339Z,96.70
2023-04-20T01:03:27.155Z,96.70
2023-04-20T01:05:55.394Z,96.90
2023-04-20T01:08:27.357Z,97.10
2023-04-20T01:10:56.156Z,97.40
2023-04-20T01:13:25.729Z,97.20
2023-04-20T01:15:53.808Z,97.50
2023-04-20T01:18:21.924Z,97.60
2023-04-20T01:20:50.018Z,97.60
2023-04-20T01:23:19.417Z,97.60
2023-04-20T01:25:47.467Z,97.80
2023-04-20T01:28:15.524Z,97.90
2023-04-20T01:30:43.580Z,98.20
2023-04-20T01:33:11.614Z,98.60
2023-04-20T01:35:42.908Z,99.20
2023-04-20T01:38:10.976Z,99.30
2023-04-20T01:40:40.661Z,99.60
2023-04-20T01:43:08.727Z,99.70
2023-04-20T01:45:36.825Z,99.80
2023-04-20T01:48:05.180Z,99.90
2023-04-20T01:50:33.459Z,99.90
2023-04-20T01:53:01.544Z,99.90
2023-04-20T01:55:29.692Z,99.90
2023-04-20T01:57:59.287Z,99.90
2023-04-20T02:00:27.589Z,99.90
2023-04-20T02:02:56.082Z,99.90
2023-04-20T02:05:24.648Z,99.90
2023-04-20T02:07:52.799Z,99.90
2023-04-20T02:10:21.043Z,99.90
2023-04-20T02:12:50.533Z,99.90
2023-04-20T02:15:20.015Z,99.90
2023-04-20T02:17:52.173Z,99.90
2023-04-20T02:20:21.373Z,99.90
2023-04-20T02:22:49.485Z,99.90
2023-04-20T02:25:17.581Z,99.90
2023-04-20T02:27:45.807Z,99.90
2023-04-20T02:30:14.525Z,99.90
2023-04-20T02:32:44.455Z,99.90
2023-04-20T02:35:12.602Z,99.90
2023-04-20T02:37:40.672Z,99.90
2023-04-20T02:40:09.873Z,99.90
2023-04-20T02:42:37.921Z,99.90
2023-04-20T02:45:07.617Z,99.90
2023-04-20T02:47:35.840Z,99.90
2023-04-20T02:50:05.828Z,99.90
2023-04-20T02:52:34.126Z,99.90
2023-04-20T02:55:02.216Z,99.90
2023-04-20T02:57:30.306Z,99.90
2023-04-20T02:59:58.410Z,99.90
2023-04-20T03:07:59.247Z,99.90
2023-04-20T03:10:27.341Z,99.90
2023-04-20T03:12:55.443Z,99.90
2023-04-20T03:15:23.524Z,99.90
2023-04-20T03:17:51.680Z,99.90
2023-04-20T03:20:19.920Z,99.90
2023-04-20T03:22:47.984Z,99.90
2023-04-20T03:25:17.480Z,99.90
2023-04-20T03:27:47.220Z,99.90
2023-04-20T03:30:15.997Z,99.90
2023-04-20T03:32:44.059Z,99.90
2023-04-20T03:35:12.457Z,99.90
2023-04-20T03:37:40.521Z,99.90
2023-04-20T03:40:11.565Z,99.90
2023-04-20T03:42:40.983Z,99.90
2023-04-20T03:52:57.065Z,99.90
2023-04-20T03:55:25.157Z,99.90
2023-04-20T03:57:55.473Z,99.90
2023-04-20T04:00:23.794Z,99.90
2023-04-20T04:02:52.042Z,99.90
2023-04-20T04:05:20.250Z,99.90
2023-04-20T04:07:48.468Z,99.90
2023-04-20T04:10:17.854Z,99.90
2023-04-20T04:12:45.975Z,99.90
2023-04-20T04:15:15.811Z,99.90
2023-04-20T04:17:43.944Z,99.90
2023-04-20T04:20:13.248Z,99.90
2023-04-20T04:22:42.425Z,99.90
2023-04-20T04:25:11.788Z,99.90
2023-04-20T04:27:39.971Z,99.90
2023-04-20T04:30:11.081Z,99.90
2023-04-20T04:32:40.836Z,99.90
2023-04-20T04:35:10.463Z,99.90
2023-04-20T04:37:38.541Z,99.90
2023-04-20T04:40:09.201Z,99.90
2023-04-20T04:42:37.658Z,99.90
2023-04-20T04:45:07.364Z,99.90
2023-04-20T04:47:36.285Z,99.90
2023-04-20T04:50:07.206Z,99.90
2023-04-20T04:52:35.380Z,99.90
2023-04-20T04:55:08.090Z,99.90
2023-04-20T04:57:38.575Z,99.90
2023-04-20T05:00:09.634Z,99.90
2023-04-20T05:02:38.020Z,99.90
2023-04-20T05:05:09.987Z,99.90
2023-04-20T05:07:40.021Z,99.90
2023-04-20T05:10:09.473Z,99.90
2023-04-20T05:12:37.605Z,99.90
2023-04-20T05:15:06.470Z,99.90
2023-04-20T05:17:34.641Z,99.90
2023-04-20T05:20:04.136Z,99.90
2023-04-20T05:22:34.051Z,99.90
2023-04-20T05:25:02.167Z,99.90
2023-04-20T05:27:30.772Z,99.90
2023-04-20T05:30:09.499Z,99.90
2023-04-20T05:32:45.113Z,99.90
2023-04-20T05:35:13.224Z,99.90
2023-04-20T05:37:42.804Z,99.90
2023-04-20T05:40:11.877Z,99.90
2023-04-20T05:42:40.917Z,99.90
2023-04-20T05:45:10.405Z,99.90
2023-04-20T05:47:38.569Z,99.90
2023-04-20T05:50:07.893Z,99.90
2023-04-20T05:52:35.989Z,99.90
2023-04-20T05:55:08.184Z,99.90
2023-04-20T05:57:41.875Z,99.90
2023-04-20T06:00:11.693Z,99.90
2023-04-20T06:02:40.217Z,99.90
2023-04-20T06:05:10.549Z,99.90
2023-04-20T06:07:39.382Z,99.90
2023-04-20T06:10:10.472Z,99.90
2023-04-20T06:28:03.441Z,99.90
2023-04-20T06:30:32.960Z,99.90
2023-04-20T06:33:01.153Z,99.90
2023-04-20T06:35:29.375Z,99.90
2023-04-20T06:37:57.899Z,99.90
2023-04-20T06:40:28.307Z,99.90
2023-04-20T06:42:56.416Z,99.90
2023-04-20T06:45:25.849Z,99.90
2023-04-20T06:47:54.262Z,99.90
2023-04-20T06:50:22.768Z,99.90
2023-04-20T06:52:50.841Z,99.90
2023-04-20T06:55:19.122Z,99.90
2023-04-20T06:57:47.199Z,99.90
2023-04-20T07:00:16.277Z,99.90
2023-04-20T07:02:47.235Z,99.90
2023-04-20T07:05:15.968Z,99.90
2023-04-20T07:07:44.345Z,99.90
2023-04-20T07:10:13.996Z,99.90
2023-04-20T07:12:43.958Z,99.90
2023-04-20T07:15:13.179Z,99.90
2023-04-20T07:17:41.483Z,99.90
2023-04-20T07:20:11.660Z,99.90
2023-04-20T07:22:40.429Z,99.90
2023-04-20T07:25:10.124Z,99.90
2023-04-20T07:27:39.119Z,99.90
2023-04-20T07:30:09.070Z,99.90
2023-04-20T07:32:38.012Z,99.90
2023-04-20T07:35:06.881Z,99.90
2023-04-20T07:37:36.369Z,99.90
2023-04-20T07:47:47.386Z,99.90
2023-04-20T07:50:15.927Z,99.90
2023-04-20T07:52:45.474Z,99.90
2023-04-20T07:55:14.379Z,99.90
2023-04-20T07:57:42.680Z,99.90
2023-04-20T08:00:12.905Z,99.90
2023-04-20T08:02:41.259Z,99.90
2023-04-20T08:05:11.284Z,99.90
2023-04-20T08:07:39.942Z,99.90
2023-04-20T08:10:10.750Z,99.90
2023-04-20T08:12:39.300Z,99.90
2023-04-20T08:15:08.802Z,99.90
2023-04-20T08:17:36.945Z,99.90
2023-04-20T08:20:06.099Z,99.90
2023-04-20T08:22:34.497Z,99.90
2023-04-20T08:25:02.603Z,99.90
2023-04-20T08:27:32.057Z,99.90
2023-04-20T08:30:00.790Z,99.90
2023-04-20T08:32:28.914Z,99.90
2023-04-20T08:34:57.246Z,99.90
2023-04-20T08:37:25.822Z,99.90
2023-04-20T08:39:53.956Z,99.90
2023-04-20T08:42:22.075Z,99.90
2023-04-20T08:44:51.556Z,99.90
2023-04-20T08:47:19.627Z,99.90
2023-04-20T08:49:49.516Z,99.90
2023-04-20T08:52:17.579Z,99.90
2023-04-20T08:54:55.951Z,99.90
2023-04-20T08:57:25.894Z,99.90
2023-04-20T08:59:55.532Z,99.90
2023-04-20T09:02:24.504Z,99.90
2023-04-20T09:05:02.671Z,99.90
2023-04-20T09:07:31.049Z,99.90
2023-04-20T09:10:00.609Z,99.90
2023-04-20T09:12:29.258Z,99.90
2023-04-20T09:14:58.718Z,99.90
2023-04-20T09:17:34.738Z,99.90
2023-04-20T09:20:05.114Z,99.90
2023-04-20T09:22:34.059Z,99.90
2023-04-20T09:25:12.871Z,99.90
2023-04-20T09:27:41.078Z,99.90
2023-04-20T09:30:11.615Z,99.90
2023-04-20T09:32:39.724Z,99.90
2023-04-20T09:35:08.889Z,99.90
2023-04-20T09:37:36.960Z,99.90
2023-04-20T09:40:07.590Z,99.90
2023-04-20T09:42:40.262Z,99.90
2023-04-20T09:45:14.636Z,99.90
2023-04-20T09:47:44.421Z,99.90
2023-04-20T09:50:24.765Z,99.90
2023-04-20T09:52:58.754Z,99.90
2023-04-20T09:55:27.397Z,99.90
2023-04-20T09:57:56.249Z,99.90
2023-04-20T10:00:26.064Z,99.90
2023-04-20T10:02:54.418Z,99.90
2023-04-20T10:05:34.006Z,99.90
2023-04-20T10:08:02.781Z,99.90
2023-04-20T10:10:31.270Z,99.90
2023-04-20T10:13:01.901Z,99.90
2023-04-20T10:15:40.697Z,99.90
2023-04-20T10:18:20.496Z,99.90
2023-04-20T10:20:48.741Z,99.90
2023-04-20T10:23:19.515Z,99.90
2023-04-20T10:25:57.760Z,99.90
2023-04-20T10:28:26.228Z,99.90
2023-04-20T10:30:56.338Z,99.90
2023-04-20T10:33:24.477Z,99.90
2023-04-20T10:35:55.041Z,99.90
2023-04-20T10:38:31.180Z,99.90
2023-04-20T10:41:06.656Z,99.90
2023-04-20T10:43:35.506Z,99.90
2023-04-20T10:46:15.047Z,99.90
2023-04-20T10:48:54.261Z,99.90
2023-04-20T10:51:22.582Z,99.90
2023-04-20T10:54:01.067Z,99.90
2023-04-20T10:56:29.250Z,99.90
2023-04-20T10:59:07.638Z,99.90
2023-04-20T11:01:37.174Z,99.90
2023-04-20T11:04:05.585Z,99.90
2023-04-20T11:06:33.832Z,99.90
2023-04-20T11:09:01.962Z,99.90
2023-04-20T11:19:04.990Z,99.90
2023-04-20T11:21:40.081Z,99.90
2023-04-20T11:24:19.944Z,99.90
2023-04-20T11:26:49.961Z,99.90
2023-04-20T11:29:33.196Z,99.90
2023-04-20T11:32:02.764Z,99.90
2023-04-20T11:34:32.921Z,99.90
2023-04-20T11:37:06.513Z,99.90
2023-04-20T11:39:35.284Z,99.90
2023-04-20T11:42:03.573Z,99.90
2023-04-20T11:44:31.683Z,99.90
2023-04-20T11:47:01.950Z,99.90
2023-04-20T11:49:30.902Z,99.90
2023-04-20T11:52:00.762Z,99.90
2023-04-20T11:54:30.600Z,99.90
2023-04-20T11:56:59.144Z,99.90
2023-04-20T11:59:27.255Z,99.90
2023-04-20T12:01:55.425Z,99.90
2023-04-20T12:04:23.780Z,99.90
2023-04-20T12:06:52.240Z,99.90
2023-04-20T12:09:21.652Z,99.90
2023-04-20T12:11:49.703Z,99.90
2023-04-20T12:14:17.783Z,99.90
2023-04-20T12:16:45.865Z,99.90
2023-04-20T12:19:14.026Z,99.90
2023-04-20T12:21:42.114Z,99.90
2023-04-20T12:24:10.192Z,99.90
2023-04-20T12:26:39.691Z,99.90
2023-04-20T12:29:08.263Z,99.90
2023-04-20T12:31:37.092Z,99.90
2023-04-20T12:34:05.488Z,99.90
2023-04-20T12:36:35.212Z,99.90
2023-04-20T12:39:04.579Z,99.90
2023-04-20T12:41:33.323Z,99.90
2023-04-20T12:44:06.037Z,99.90
2023-04-20T12:46:35.330Z,99.90
2023-04-20T12:49:03.692Z,99.90
2023-04-20T12:51:32.134Z,99.90
2023-04-20T12:54:00.222Z,99.90
2023-04-20T12:56:28.300Z,99.90
2023-04-20T12:58:56.350Z,99.90
2023-04-20T13:01:25.955Z,99.90
2023-04-20T13:03:54.259Z,99.90
2023-04-20T13:06:22.702Z,99.90
2023-04-20T13:08:51.145Z,99.90
2023-04-20T13:11:19.227Z,99.90
2023-04-20T13:13:47.313Z,99.90
2023-04-20T13:16:15.454Z,99.90
2023-04-20T13:18:45.032Z,99.90
2023-04-20T13:21:13.131Z,99.90
2023-04-20T13:23:41.238Z,99.90
2023-04-20T13:26:09.531Z,99.90
2023-04-20T13:28:38.017Z,99.90
2023-04-20T13:31:06.398Z,99.90
2023-04-20T13:33:34.529Z,99.90
2023-04-20T13:36:04.177Z,99.90
2023-04-20T13:38:32.298Z,99.90
2023-04-20T13:41:00.425Z,99.90
2023-04-20T13:43:28.489Z,99.90
2023-04-20T13:45:56.635Z,99.90
2023-04-20T13:48:24.787Z,99.90
2023-04-20T13:50:54.040Z,99.90
2023-04-20T13:53:23.477Z,99.90
2023-04-20T13:59:42.541Z,99.90
2023-04-20T14:09:44.480Z,99.90
2023-04-20T14:12:12.860Z,99.90
2023-04-20T14:14:41.068Z,99.90
2023-04-20T14:17:11.500Z,99.90
2023-04-20T14:19:39.594Z,99.90
2023-04-20T14:22:07.635Z,99.90
2023-04-20T14:24:35.755Z,99.90
2023-04-20T14:27:05.381Z,99.90
2023-04-20T14:29:33.476Z,99.90
2023-04-20T14:32:01.731Z,99.90
2023-04-20T14:34:29.829Z,99.90
2023-04-20T14:36:57.954Z,99.90
2023-04-20T14:39:26.018Z,99.90
2023-04-20T14:41:54.134Z,99.90
2023-04-20T14:44:23.525Z,99.90
2023-04-20T14:46:51.798Z,99.90
2023-04-20T14:49:19.970Z,99.90
2023-04-20T14:51:48.072Z,99.90
2023-04-20T14:54:16.423Z,99.90
2023-04-20T14:56:45.009Z,99.90
2023-04-20T14:59:13.055Z,99.90
2023-04-20T15:01:51.566Z,99.90
2023-04-20T15:04:23.520Z,99.90
2023-04-20T15:06:52.196Z,99.90
2023-04-20T15:09:20.273Z,99.90
2023-04-20T15:11:48.410Z,99.90
2023-04-20T15:14:16.801Z,99.90
2023-04-20T15:16:46.545Z,99.90
2023-04-20T15:19:14.645Z,99.90
2023-04-20T15:21:43.538Z,99.90
2023-04-20T15:24:12.646Z,99.90
2023-04-20T15:26:40.724Z,99.90
2023-04-20T15:29:08.869Z,99.90
2023-04-20T15:31:37.008Z,99.90
2023-04-20T15:34:06.460Z,99.90
2023-04-20T15:36:34.594Z,99.90
2023-04-20T15:39:02.720Z,99.90
2023-04-20T15:41:30.808Z,99.90
2023-04-20T15:43:59.225Z,99.90
2023-04-20T15:46:27.472Z,99.90
2023-04-20T15:48:55.583Z,99.90
2023-04-20T15:51:25.033Z,99.90
2023-04-20T15:53:53.109Z,99.90
2023-04-20T15:56:22.571Z,99.90
2023-04-20T15:58:51.344Z,99.90
2023-04-20T16:01:19.880Z,99.90
2023-04-20T16:03:49.982Z,99.90
2023-04-20T16:06:18.297Z,99.90
2023-04-20T16:08:49.604Z,99.90
2023-04-20T16:11:18.069Z,99.90
2023-04-20T16:13:46.156Z,99.90
2023-04-20T16:16:14.225Z,99.90
2023-04-20T16:18:42.344Z,99.90
2023-04-20T16:21:10.473Z,99.90
2023-04-20T16:23:38.533Z,99.90
2023-04-20T16:26:08.108Z,99.90
2023-04-20T16:28:36.228Z,99.90
2023-04-20T16:31:04.999Z,99.90
2023-04-20T16:33:33.614Z,99.90
2023-04-20T16:36:01.920Z,99.90
2023-04-20T16:38:30.014Z,99.90
2023-04-20T16:40:58.344Z,99.90
2023-04-20T16:43:27.887Z,99.90
2023-04-20T16:45:56.037Z,99.90
2023-04-20T16:48:24.152Z,99.90
2023-04-20T16:50:52.221Z,99.90
2023-04-20T16:53:20.354Z,99.90
2023-04-20T16:55:48.472Z,99.90
2023-04-20T16:58:16.542Z,99.90
2023-04-20T17:00:46.035Z,99.90
2023-04-20T17:03:14.948Z,99.90
2023-04-20T17:05:43.488Z,99.90
2023-04-20T17:08:11.571Z,99.90
2023-04-20T17:10:39.654Z,99.90
2023-04-20T17:13:08.380Z,99.90
2023-04-20T17:15:36.774Z,99.90
2023-04-20T17:18:06.981Z,99.90
2023-04-20T17:20:35.405Z,99.90
2023-04-20T17:23:03.516Z,99.90
2023-04-20T17:25:31.665Z,99.90
2023-04-20T17:27:59.767Z,99.90
2023-04-20T17:30:28.515Z,99.90
2023-04-20T17:32:57.279Z,99.90
2023-04-20T17:35:26.885Z,99.90
2023-04-20T17:37:55.043Z,99.90
2023-04-20T17:40:23.193Z,99.90
2023-04-20T17:42:51.331Z,99.90
2023-04-20T17:45:19.629Z,99.90
2023-04-20T17:47:47.943Z,99.90
2023-04-20T17:50:16.564Z,99.90
2023-04-20T17:52:46.112Z,99.90
2023-04-20T17:55:14.189Z,99.90
2023-04-20T17:57:42.330Z,99.90
2023-04-20T18:00:12.567Z,99.90
2023-04-20T18:02:41.168Z,99.90
2023-04-20T18:05:09.910Z,99.90
2023-04-20T18:07:38.017Z,99.90
2023-04-20T18:10:08.860Z,99.90
2023-04-20T18:12:37.074Z,99.90
2023-04-20T18:15:08.182Z,99.90
2023-04-20T18:17:36.561Z,99.90
2023-04-20T18:20:05.837Z,99.90
2023-04-20T18:22:33.967Z,99.90
2023-04-20T18:25:02.023Z,99.90
2023-04-20T18:27:31.490Z,99.90
2023-04-20T18:30:00.612Z,99.90
2023-04-20T18:32:30.938Z,99.90
2023-04-20T18:35:00.502Z,99.90
2023-04-20T18:37:28.595Z,99.90
2023-04-20T18:39:57.140Z,99.90
2023-04-20T18:42:25.216Z,99.90
2023-04-20T18:44:56.108Z,99.90
2023-04-20T18:47:26.391Z,99.90
2023-04-20T18:49:54.575Z,99.90
2023-04-20T18:52:23.304Z,99.90
2023-04-20T18:54:51.838Z,99.90
2023-04-20T18:57:23.976Z,99.90
2023-04-20T18:59:52.035Z,99.90
2023-04-20T19:02:21.607Z,99.90
2023-04-20T19:08:49.089Z,99.90
2023-04-20T19:16:37.197Z,99.90
2023-04-20T19:23:17.920Z,99.90
2023-04-20T19:25:46.124Z,99.90
2023-04-20T19:28:14.255Z,99.90
2023-04-20T19:30:42.498Z,99.90
2023-04-20T19:33:10.836Z,99.90
2023-04-20T19:35:38.959Z,99.90
2023-04-20T19:38:07.025Z,99.90
2023-04-20T19:40:36.465Z,99.90
2023-04-20T19:43:04.561Z,99.90
2023-04-20T19:45:32.682Z,99.90
2023-04-20T19:48:00.805Z,99.90
2023-04-20T19:50:28.934Z,99.90
2023-04-20T19:52:57.628Z,99.90
2023-04-20T19:55:26.106Z,99.90
2023-04-20T19:57:55.575Z,99.90
2023-04-20T20:00:23.714Z,99.90
2023-04-20T20:02:51.892Z,99.90
2023-04-20T20:05:20.093Z,99.90
2023-04-20T20:07:48.140Z,99.90
2023-04-20T20:10:16.217Z,99.90
2023-04-20T20:12:46.396Z,99.90
2023-04-20T20:15:15.911Z,99.90
2023-04-20T20:17:45.319Z,99.90
2023-04-20T20:20:15.427Z,99.90
2023-04-20T20:22:48.176Z,99.90
2023-04-20T20:29:06.976Z,99.90
2023-04-20T20:31:36.487Z,99.90
2023-04-20T20:34:04.694Z,99.90
2023-04-20T20:36:33.537Z,99.90
2023-04-20T20:39:01.665Z,99.90
2023-04-20T20:45:21.903Z,99.90
2023-04-20T20:47:51.521Z,99.90
2023-04-20T20:50:20.087Z,99.90
2023-04-20T20:52:48.183Z,99.90
2023-04-20T20:55:16.395Z,99.90
2023-04-20T20:57:44.476Z,99.90
2023-04-20T21:00:13.780Z,99.90
2023-04-20T21:02:42.052Z,99.90
2023-04-20T21:05:12.041Z,99.90
2023-04-20T21:07:40.353Z,99.90
2023-04-20T21:10:09.209Z,99.90
2023-04-20T21:12:37.287Z,99.90
2023-04-20T21:22:38.349Z,99.90
2023-04-20T21:25:07.426Z,99.90
2023-04-20T21:27:35.523Z,99.90
2023-04-20T21:30:03.554Z,99.90
2023-04-20T21:32:31.696Z,99.90
2023-04-20T21:34:59.781Z,99.90
2023-04-20T21:37:28.019Z,99.90
2023-04-20T21:39:57.445Z,99.90
2023-04-20T21:42:25.598Z,99.90
2023-04-20T21:44:53.632Z,99.90
2023-04-20T21:47:21.690Z,99.90
2023-04-20T21:49:49.759Z,99.90
2023-04-20T21:52:17.795Z,99.90
2023-04-20T21:54:46.493Z,99.90
2023-04-20T21:57:15.908Z,99.90
2023-04-20T21:59:44.005Z,99.90
2023-04-20T22:02:12.145Z,99.90
2023-04-20T22:04:41.273Z,99.90
2023-04-20T22:07:09.844Z,99.90
2023-04-20T22:09:38.036Z,99.90
2023-04-20T22:12:06.602Z,99.90
2023-04-20T22:14:36.034Z,99.90
2023-04-20T22:17:05.044Z,99.90
2023-04-20T22:19:33.529Z,99.90
2023-04-20T22:22:01.544Z,99.90
2023-04-20T22:24:29.643Z,99.90
2023-04-20T22:26:58.179Z,99.90
2023-04-20T22:29:26.269Z,99.90
2023-04-20T22:31:55.690Z,99.90
2023-04-20T22:34:23.779Z,99.90
2023-04-20T22:36:51.909Z,99.90
2023-04-20T22:39:20.166Z,99.90
2023-04-20T22:41:48.433Z,99.90
2023-04-20T22:44:16.496Z,99.90
2023-04-20T22:46:44.986Z,99.90
2023-04-20T22:49:15.055Z,99.90
2023-04-20T22:51:43.375Z,99.90
2023-04-20T22:58:49.044Z,99.90
2023-04-20T23:01:17.138Z,99.90
2023-04-20T23:03:45.356Z,99.90
2023-04-20T23:06:18.900Z,99.90
2023-04-20T23:08:47.061Z,99.90
2023-04-20T23:11:16.379Z,99.90
2023-04-20T23:13:46.753Z,99.90
2023-04-20T23:16:14.958Z,99.90
2023-04-20T23:18:42.997Z,99.90
2023-04-20T23:21:11.101Z,99.90
2023-04-20T23:23:40.565Z,99.90
2023-04-20T23:26:08.663Z,99.90
2023-04-20T23:28:36.754Z,99.90
2023-04-20T23:31:04.884Z,99.90
2023-04-20T23:33:33.081Z,99.90
2023-04-20T23:36:01.146Z,99.90
2023-04-20T23:38:29.268Z,99.90
2023-04-20T23:40:58.761Z,99.90
2023-04-20T23:43:26.849Z,99.90
2023-04-20T23:45:54.913Z,99.90
2023-04-20T23:48:23.002Z,99.90
2023-04-20T23:50:51.410Z,99.90
2023-04-20T23:53:19.464Z,99.90
2023-04-20T23:55:51.766Z,99.90
2023-04-20T23:58:21.378Z,99.90
